ADDS TAF Board (Experimental) INFO Settings
IDs: Format: Expanded Condensed

KPIT - Pittsburgh Intl, PA, US

Issued at 2055 UTC 01 May 2016
Updated at: 2310 UTC 01 May 2016
Time2251Z 02/00Z 02/01Z 02/02Z 02/03Z 02/04Z 02/05Z 02/06Z 02/07Z 02/08Z 02/09Z 02/10Z 02/11Z 02/12Z
Type OBS PRVL PRVL PRVL PRVL PRVL PRVL PRVL PRVL PRVL PRVL PRVL PRVL PRVL
VIS 10 >6 >6 >6 >6 >6 4 4 3 3 3 3 3 3
CIG 100 45 45 45 45 45 25 25 7 7 7 7 7 7
Cover BKN BKN BKN BKN BKN BKN OVC OVC OVC OVC OVC OVC OVC OVC
FltCat VFR VFR VFR VFR VFR VFR MVFR MVFR IFR IFR IFR IFR IFR IFR
WX -- VCTS VCTS VCTS VCTS VCTS -SHRA BR -SHRA BR -SHRA -SHRA -SHRA -SHRA -SHRA -SHRA
WDir 240 240 240 240 240 240 VRB VRB VRB VRB VRB VRB VRB VRB
WSpd 3 7 7 7 7 7 3 3 3 3 3 3 3 3
WGst -- -- -- -- -- -- -- -- -- -- -- -- -- --
R10/28
XWnd -2 -4 -4 -4 -4 -4 VRB VRB VRB VRB VRB VRB VRB VRB
HWnd -3 -6 -6 -6 -6 -6 VRB VRB VRB VRB VRB VRB VRB VRB
R14/32
XWnd -3 -7 -7 -7 -7 -7 VRB VRB VRB VRB VRB VRB VRB VRB
HWnd -1 -2 -2 -2 -2 -2 VRB VRB VRB VRB VRB VRB VRB VRB

NOTE: TEMPO conditions in [brackets]. Keep in mind TEMPO conditions might be better (lower impact) than prevailing conditions.

Raw TAF
KPIT 012055Z 0121/0224 24007KT P6SM VCTS BKN045CB
  FM020500 VRB03KT 4SM -SHRA BR OVC025
  FM020700 VRB03KT 3SM -SHRA OVC007
  FM021400 33005KT P6SM OVC015


Raw METAR
KPIT 012251Z 24003KT 10SM FEW038 BKN100 BKN220 18/14 A2993 RMK AO2 RAE10 TSE19 SLP140 P0001 T01780139
KPIT 012219Z 21008KT 10SM FEW034 SCT050 BKN100 OVC220 18/14 A2992 RMK AO2 RAE10 TSE19 P0001 T01780144
KPIT 012151Z 22006KT 7SM -TSRA SCT032 BKN050CB OVC090 19/15 A2992 RMK AO2 RAB2058 TSB33 SLP136 OCNL LTGICCC VC SE-S TS VC SE-S MOV E P0001 T01890150
KPIT 012133Z COR 34006KT 7SM -TSRA SCT032 BKN048CB OVC090 21/14 A2991 RMK AO2 RAB2058 TSB33 OCNL LTGICCC VC S-SW TS VC S-SW MOV E P0001 T02060144
KPIT 012051Z 26004KT 10SM SCT028 BKN047 BKN110 22/12 A2991 RMK AO2 SLP131 T02220117 56012

METAR Board
Radar Display
Forecast Discussion

TAF Board Legend

Potential Impact
Threat None Slight Moderate High
Visibility (sm) ≥5.1 5.1>X≥3 3>X≥1 <1
Ceiling (100 ft) ≥30.1 30.1>X≥10 10>X≥5 <5
Wind Speed (kt) <10 10≤X<20 20≤X<30 ≥30
Wind Gust (kt) <15 15≤X<25 25≤X<35 ≥35
Weather No Wx Reported VCTS,-TS,-FZRA,SN TS,FZRA +TS,+FZRA,+SN